Brumley, Texas
Current Conditions -  °F | °C
As of 3:55 AM on Sunday 25 Jan 2015 (Local Time) from KOSA Reporting Station
Clear Clear  
Wind Chill: 30°   Ceiling: Unl
Heat Index: 35°   Visibility: 10mi
Dew Point: 32°   Wind: 6mph
Humidity: 90%   Direction: 150°SSE
Pressure: 29.93"   Gusts: NA
Location:  32.9352°N, 94.9553°W
Report Text: KOSA 250955Z AUTO 15005KT 10SM CLR 02/00 A2993 RMK AO1 T00150000
Loading
Personal Weather Stations






























Interactive Weather Map New forecast layout! Learn more

10-Day Weather Forecast

Advertisements
Track Severe Weather on mobile